Terminal Aerodrome Forecast
Issued by NWS Louisville, KY

Home | Current Version | Previous Version | Text Only | Print | Product List | Glossary On
Versions: 1 2 3 4 5 6 7 8 9 10 11 12 13 14 15
000
FTUS43 KLMK 021121
TAFLEX
TAF
KLEX 021121Z 0212/0312 30005KT P6SM SCT050
     FM030900 VRB03KT 5SM BR SCT250=

USA.gov is the U.S. government's official web portal to all federal, state and local government web resources and services.